createdAt,value
2023-05-14T00:02:02.928Z,95500.59
2023-05-14T00:05:06.822Z,95499.28
2023-05-14T00:08:09.910Z,95492.88
2023-05-14T00:11:14.419Z,95487.56
2023-05-14T00:14:17.451Z,95493.94
2023-05-14T00:17:20.559Z,95494.25
2023-05-14T00:20:23.809Z,95481.53
2023-05-14T00:23:26.977Z,95488.13
2023-05-14T00:26:31.443Z,95477.50
2023-05-14T00:29:34.486Z,95485.47
2023-05-14T00:32:37.582Z,95470.59
2023-05-14T00:35:40.695Z,95449.97
2023-05-14T00:38:43.834Z,95468.72
2023-05-14T00:41:48.334Z,95467.94
2023-05-14T00:44:51.329Z,95450.75
2023-05-14T00:50:58.028Z,95458.66
2023-05-14T00:54:01.105Z,95465.25
2023-05-14T00:57:07.498Z,95454.13
2023-05-14T01:00:11.332Z,95457.56
2023-05-14T01:03:14.524Z,95451.47
2023-05-14T01:06:25.913Z,95455.78
2023-05-14T01:09:37.578Z,95446.72
2023-05-14T01:12:50.686Z,95447.81
2023-05-14T01:15:57.175Z,95447.81
2023-05-14T01:19:02.619Z,95410.78
2023-05-14T01:22:07.422Z,95449.69
2023-05-14T01:25:11.200Z,95459.22
2023-05-14T01:28:19.139Z,95457.44
2023-05-14T01:31:28.794Z,95472.03
2023-05-14T01:34:33.037Z,95479.22
2023-05-14T01:37:39.160Z,95434.56
2023-05-14T01:40:43.096Z,95468.88
2023-05-14T01:43:46.793Z,95474.97
2023-05-14T01:46:49.856Z,95478.44
2023-05-14T01:49:52.866Z,95480.81
2023-05-14T01:52:57.542Z,95473.41
2023-05-14T01:56:00.628Z,95468.38
2023-05-14T01:59:03.696Z,95473.94
2023-05-14T02:02:06.772Z,95482.47
2023-05-14T02:05:11.544Z,95481.66
2023-05-14T02:08:16.109Z,95483.25
2023-05-14T02:11:19.306Z,95483.50
2023-05-14T02:14:22.434Z,95484.03
2023-05-14T02:17:27.388Z,95491.50
2023-05-14T02:20:30.465Z,95480.34
2023-05-14T02:23:41.619Z,95480.84
2023-05-14T02:26:47.625Z,95484.88
2023-05-14T02:29:50.722Z,95486.47
2023-05-14T02:32:53.943Z,95490.50
2023-05-14T02:35:57.125Z,95499.25
2023-05-14T02:39:01.964Z,95490.50
2023-05-14T02:42:05.319Z,95496.31
2023-05-14T02:45:09.054Z,95508.81
2023-05-14T02:48:12.179Z,95512.06
2023-05-14T02:51:16.295Z,95468.00
2023-05-14T02:54:20.786Z,95510.19
2023-05-14T02:57:23.930Z,95512.84
2023-05-14T03:00:26.995Z,95503.28
2023-05-14T03:03:31.017Z,95509.69
2023-05-14T03:06:34.732Z,95513.94
2023-05-14T03:09:39.177Z,95509.69
2023-05-14T03:12:42.286Z,95508.59
2023-05-14T03:15:45.453Z,95478.97
2023-05-14T03:18:48.776Z,95489.47
2023-05-14T03:21:51.835Z,95473.31
2023-05-14T03:24:56.389Z,95473.81
2023-05-14T03:27:59.497Z,95484.44
2023-05-14T03:31:02.710Z,95495.09
2023-05-14T03:34:05.890Z,95484.75
2023-05-14T03:37:08.936Z,95496.16
2023-05-14T03:40:14.092Z,95508.09
2023-05-14T03:43:17.554Z,95516.09
2023-05-14T03:46:20.630Z,95481.56
2023-05-14T03:49:23.736Z,95500.69
2023-05-14T03:52:26.812Z,95499.63
2023-05-14T03:55:31.379Z,95499.13
2023-05-14T03:58:34.499Z,95503.34
2023-05-14T04:01:37.701Z,95505.50
2023-05-14T04:04:41.148Z,95495.44
2023-05-14T04:07:45.893Z,95470.63
2023-05-14T04:10:50.397Z,95506.31
2023-05-14T04:13:53.553Z,95512.41
2023-05-14T04:16:56.735Z,95510.84
2023-05-14T04:19:59.820Z,95511.63
2023-05-14T04:23:02.909Z,95514.56
2023-05-14T04:26:07.505Z,95518.31
2023-05-14T04:29:10.629Z,95520.19
2023-05-14T04:32:14.133Z,95525.75
2023-05-14T04:35:17.331Z,95532.94
2023-05-14T04:38:20.491Z,95540.91
2023-05-14T04:41:24.981Z,95541.19
2023-05-14T04:44:28.138Z,95553.97
2023-05-14T04:47:31.275Z,95539.03
2023-05-14T04:50:34.425Z,95549.19
2023-05-14T04:53:37.620Z,95551.56
2023-05-14T04:56:42.063Z,95557.66
2023-05-14T04:59:45.199Z,95561.41
2023-05-14T05:02:48.371Z,95561.41
2023-05-14T05:05:52.110Z,95573.38
2023-05-14T05:08:55.132Z,95576.25
2023-05-14T05:11:59.514Z,95583.94
2023-05-14T05:15:02.539Z,95589.25
2023-05-14T05:18:06.520Z,95594.56
2023-05-14T05:21:09.547Z,95604.69
2023-05-14T05:24:13.532Z,95587.53
2023-05-14T05:27:18.418Z,95599.19
2023-05-14T05:30:21.783Z,95625.69
2023-05-14T05:33:24.981Z,95608.47
2023-05-14T05:36:28.780Z,95618.78
2023-05-14T05:39:35.311Z,95622.53
2023-05-14T05:42:40.201Z,95628.34
2023-05-14T05:45:43.246Z,95626.78
2023-05-14T05:48:46.291Z,95624.63
2023-05-14T05:51:49.269Z,95631.00
2023-05-14T05:54:52.290Z,95631.00
2023-05-14T05:57:56.755Z,95635.53
2023-05-14T06:01:00.258Z,95627.56
2023-05-14T06:04:04.569Z,95608.88
2023-05-14T06:07:07.592Z,95628.13
2023-05-14T06:10:10.761Z,95611.59
2023-05-14T06:13:15.222Z,95615.84
2023-05-14T06:16:18.372Z,95617.50
2023-05-14T06:19:21.510Z,95626.47
2023-05-14T06:22:25.053Z,95623.03
2023-05-14T06:25:28.088Z,95585.25
2023-05-14T06:28:35.630Z,95596.03
2023-05-14T06:31:38.797Z,95610.84
2023-05-14T06:34:41.881Z,95614.03
2023-05-14T06:37:44.815Z,95629.47
2023-05-14T06:40:47.829Z,95627.38
2023-05-14T06:43:52.208Z,95645.69
2023-05-14T06:46:55.246Z,95627.66
2023-05-14T06:49:58.881Z,95619.16
2023-05-14T06:53:01.862Z,95583.22
2023-05-14T06:56:05.204Z,95603.50
2023-05-14T06:59:09.711Z,95592.88
2023-05-14T07:02:13.369Z,95598.19
2023-05-14T07:05:16.446Z,95583.59
2023-05-14T07:08:19.486Z,95596.88
2023-05-14T07:11:23.175Z,95602.19
2023-05-14T07:14:27.687Z,95601.91
2023-05-14T07:17:30.861Z,95598.75
2023-05-14T07:20:34.032Z,95606.22
2023-05-14T07:23:38.439Z,95634.38
2023-05-14T07:26:41.756Z,95656.44
2023-05-14T07:29:46.292Z,95645.03
2023-05-14T07:32:49.432Z,95638.13
2023-05-14T07:35:52.986Z,95637.34
2023-05-14T07:38:56.306Z,95636.53
2023-05-14T07:41:59.334Z,95626.97
2023-05-14T07:45:04.095Z,95620.88
2023-05-14T07:48:07.321Z,95625.91
2023-05-14T07:51:10.577Z,95636.00
2023-05-14T07:54:13.678Z,95632.31
2023-05-14T07:57:16.849Z,95640.00
2023-05-14T08:00:21.788Z,95655.19
2023-05-14T08:03:25.194Z,95660.50
2023-05-14T08:06:29.613Z,95658.13
2023-05-14T08:09:32.697Z,95635.59
2023-05-14T08:12:35.729Z,95638.16
2023-05-14T08:15:40.279Z,95627.66
2023-05-14T08:18:43.316Z,95632.94
2023-05-14T08:21:46.484Z,95633.47
2023-05-14T08:24:49.723Z,95631.88
2023-05-14T08:27:54.192Z,95615.41
2023-05-14T08:30:58.648Z,95616.09
2023-05-14T08:34:01.977Z,95603.16
2023-05-14T08:37:05.271Z,95612.34
2023-05-14T08:40:10.267Z,95607.03
2023-05-14T08:43:15.775Z,95606.25
2023-05-14T08:46:24.653Z,95601.22
2023-05-14T08:49:40.383Z,95594.81
2023-05-14T08:52:43.500Z,95595.31
2023-05-14T08:55:47.252Z,95598.19
2023-05-14T08:58:50.296Z,95594.44
2023-05-14T09:01:55.873Z,95588.56
2023-05-14T09:05:00.960Z,95588.56
2023-05-14T09:08:04.011Z,95582.16
2023-05-14T09:11:07.111Z,95589.13
2023-05-14T09:14:11.388Z,95590.22
2023-05-14T09:17:16.678Z,95584.88
2023-05-14T09:20:20.262Z,95579.50
2023-05-14T09:23:23.264Z,95601.53
2023-05-14T09:26:27.270Z,95601.19
2023-05-14T09:29:31.205Z,95606.72
2023-05-14T09:32:59.331Z,95592.06
2023-05-14T09:36:07.285Z,95570.28
2023-05-14T09:42:42.797Z,95593.22
2023-05-14T09:45:45.818Z,95588.41
2023-05-14T09:48:50.389Z,95558.41
2023-05-14T09:51:53.533Z,95557.06
2023-05-14T09:54:56.790Z,95557.06
2023-05-14T09:57:59.852Z,95561.28
2023-05-14T10:01:03.701Z,95561.59
2023-05-14T10:04:10.304Z,95558.91
2023-05-14T10:07:14.185Z,95540.66
2023-05-14T10:10:19.866Z,95545.44
2023-05-14T10:13:28.601Z,95534.88
2023-05-14T10:16:35.412Z,95533.94
2023-05-14T10:19:41.076Z,95515.25
2023-05-14T10:22:44.153Z,95517.28
2023-05-14T10:25:47.513Z,95510.41
2023-05-14T10:28:50.954Z,95511.50
2023-05-14T10:31:55.850Z,95529.84
2023-05-14T10:35:03.156Z,95517.78
2023-05-14T10:38:10.075Z,95547.19
2023-05-14T10:41:15.756Z,95526.72
2023-05-14T10:44:18.911Z,95531.00
2023-05-14T10:47:22.576Z,95509.25
2023-05-14T10:50:27.916Z,95523.59
2023-05-14T10:53:35.701Z,95531.28
2023-05-14T10:56:38.785Z,95522.81
2023-05-14T10:59:43.664Z,95524.94
2023-05-14T11:02:46.972Z,95507.41
2023-05-14T11:05:51.663Z,95510.59
2023-05-14T11:08:55.637Z,95510.03
2023-05-14T11:11:58.696Z,95506.28
2023-05-14T11:15:04.697Z,95509.22
2023-05-14T11:18:07.827Z,95515.91
2023-05-14T11:21:12.336Z,95519.38
2023-05-14T11:24:15.444Z,95521.53
2023-05-14T11:27:19.011Z,95521.75
2023-05-14T11:30:23.090Z,95515.53
2023-05-14T11:33:28.690Z,95514.84
2023-05-14T11:36:33.024Z,95498.28
2023-05-14T11:39:37.662Z,95495.91
2023-05-14T11:42:40.739Z,95519.34
2023-05-14T11:45:43.895Z,95510.72
2023-05-14T11:48:48.838Z,95494.25
2023-05-14T11:51:58.561Z,95493.97
2023-05-14T11:55:01.572Z,95495.78
2023-05-14T11:58:04.628Z,95490.66
2023-05-14T12:01:07.683Z,95489.66
2023-05-14T12:04:11.166Z,95485.50
2023-05-14T12:07:17.515Z,95484.44
2023-05-14T12:10:20.633Z,95488.09
2023-05-14T12:13:26.465Z,95475.34
2023-05-14T12:16:33.184Z,95473.00
2023-05-14T12:19:41.865Z,95455.38
2023-05-14T12:22:46.219Z,95455.50
2023-05-14T12:25:52.532Z,95449.03
2023-05-14T12:29:00.686Z,95443.81
2023-05-14T12:32:06.046Z,95433.13
2023-05-14T12:35:09.888Z,95407.13
2023-05-14T12:38:14.302Z,95429.97
2023-05-14T12:41:17.450Z,95433.44
2023-05-14T12:44:22.638Z,95416.28
2023-05-14T12:47:25.810Z,95423.84
2023-05-14T12:50:28.883Z,95424.31
2023-05-14T12:53:33.401Z,95414.06
2023-05-14T12:56:37.825Z,95411.06
2023-05-14T12:59:41.149Z,95420.22
2023-05-14T13:02:44.316Z,95420.19
2023-05-14T13:05:47.479Z,95409.97
2023-05-14T13:08:51.891Z,95423.69
2023-05-14T13:11:55.026Z,95419.28
2023-05-14T13:14:58.045Z,95415.97
2023-05-14T13:18:01.108Z,95406.19
2023-05-14T13:21:06.508Z,95405.53
2023-05-14T13:24:11.243Z,95394.53
2023-05-14T13:27:14.255Z,95402.09
2023-05-14T13:30:17.919Z,95401.16
2023-05-14T13:33:20.924Z,95414.38
2023-05-14T13:36:23.973Z,95402.09
2023-05-14T13:39:28.333Z,95386.50
2023-05-14T13:42:31.527Z,95382.41
2023-05-14T13:45:34.563Z,95380.84
2023-05-14T13:48:37.742Z,95389.34
2023-05-14T13:51:40.772Z,95377.16
2023-05-14T13:54:45.117Z,95371.72
2023-05-14T13:57:48.170Z,95376.63
2023-05-14T14:00:51.421Z,95389.63
2023-05-14T14:03:54.497Z,95390.63
2023-05-14T14:06:57.775Z,95392.81
2023-05-14T14:10:02.398Z,95394.91
2023-05-14T14:13:05.405Z,95400.84
2023-05-14T14:16:08.532Z,95395.81
2023-05-14T14:19:11.740Z,95394.13
2023-05-14T14:22:17.388Z,95384.06
2023-05-14T14:25:22.067Z,95383.38
2023-05-14T14:28:25.524Z,95381.50
2023-05-14T14:31:28.599Z,95378.72
2023-05-14T14:34:31.587Z,95386.63
2023-05-14T14:37:34.654Z,95377.63
2023-05-14T14:40:39.077Z,95371.28
2023-05-14T14:43:43.553Z,95374.53
2023-05-14T14:46:46.553Z,95364.78
2023-05-14T14:49:49.502Z,95369.03
2023-05-14T14:52:52.611Z,95373.75
2023-05-14T14:55:57.642Z,95374.44
2023-05-14T14:59:00.704Z,95384.31
2023-05-14T15:02:03.890Z,95381.34
2023-05-14T15:05:08.119Z,95368.09
2023-05-14T15:08:11.385Z,95362.78
2023-05-14T15:11:15.929Z,95363.09
2023-05-14T15:14:18.985Z,95359.09
2023-05-14T15:17:22.061Z,95349.97
2023-05-14T15:20:25.242Z,95355.28
2023-05-14T15:23:28.386Z,95363.13
2023-05-14T15:26:33.224Z,95362.47
2023-05-14T15:29:36.348Z,95346.16
2023-05-14T15:32:39.415Z,95312.19
2023-05-14T15:35:42.436Z,95346.75
2023-05-14T15:38:45.511Z,95343.56
2023-05-14T15:41:49.924Z,95343.25
2023-05-14T15:44:53.022Z,95335.00
2023-05-14T15:47:56.144Z,95332.19
2023-05-14T15:50:59.464Z,95330.59
2023-05-14T15:54:02.619Z,95352.00
2023-05-14T15:57:07.654Z,95345.00
2023-05-14T16:00:17.714Z,95343.97
2023-05-14T16:03:21.075Z,95335.44
2023-05-14T16:06:24.284Z,95320.66
2023-05-14T16:09:27.411Z,95311.06
2023-05-14T16:12:31.847Z,95301.63
2023-05-14T16:15:34.922Z,95307.53
2023-05-14T16:18:39.030Z,95305.78
2023-05-14T16:21:42.323Z,95323.59
2023-05-14T16:24:46.068Z,95319.66
2023-05-14T16:27:50.597Z,95325.28
2023-05-14T16:30:53.762Z,95315.34
2023-05-14T16:33:56.875Z,95318.06
2023-05-14T16:37:00.799Z,95323.41
2023-05-14T16:40:03.915Z,95317.34
2023-05-14T16:43:08.511Z,95311.03
2023-05-14T16:46:11.661Z,95307.53
2023-05-14T16:49:15.296Z,95307.53
2023-05-14T16:52:18.634Z,95318.84
2023-05-14T16:55:21.981Z,95313.53
2023-05-14T16:58:26.534Z,95311.16
2023-05-14T17:01:29.665Z,95296.19
2023-05-14T17:04:33.483Z,95287.50
2023-05-14T17:07:38.502Z,95276.31
2023-05-14T17:10:41.623Z,95275.22
2023-05-14T17:13:46.123Z,95258.22
2023-05-14T17:16:49.993Z,95276.38
2023-05-14T17:19:53.165Z,95277.28
2023-05-14T17:22:56.267Z,95273.47
2023-05-14T17:25:59.419Z,95273.81
2023-05-14T17:29:03.904Z,95256.91
2023-05-14T17:32:07.581Z,95255.84
2023-05-14T17:35:11.773Z,95239.44
2023-05-14T17:38:15.017Z,95254.09
2023-05-14T17:41:18.130Z,95248.09
2023-05-14T17:44:22.752Z,95256.00
2023-05-14T17:47:25.819Z,95256.16
2023-05-14T17:50:28.936Z,95198.69
2023-05-14T17:53:32.052Z,95259.06
2023-05-14T17:56:35.391Z,95255.94
2023-05-14T17:59:39.932Z,95271.56
2023-05-14T18:02:43.119Z,95271.06
2023-05-14T18:05:46.329Z,95248.03
2023-05-14T18:08:50.030Z,95256.47
2023-05-14T18:11:54.660Z,95261.13
2023-05-14T18:15:00.709Z,95269.19
2023-05-14T18:18:03.928Z,95261.59
2023-05-14T18:21:07.047Z,95271.88
2023-05-14T18:24:10.504Z,95282.00
2023-05-14T18:27:13.655Z,95276.63
2023-05-14T18:30:18.230Z,95268.28
2023-05-14T18:33:21.248Z,95248.25
2023-05-14T18:36:24.334Z,95247.16
2023-05-14T18:39:27.826Z,95243.06
2023-05-14T18:42:30.903Z,95252.19
2023-05-14T18:45:35.491Z,95247.59
2023-05-14T18:48:38.548Z,95256.09
2023-05-14T18:51:41.664Z,95258.00
2023-05-14T18:54:44.749Z,95266.84
2023-05-14T18:57:47.973Z,95277.84
2023-05-14T19:00:52.933Z,95273.75
2023-05-14T19:03:56.262Z,95262.06
2023-05-14T19:06:59.721Z,95270.84
2023-05-14T19:10:03.761Z,95275.47
2023-05-14T19:13:06.811Z,95282.00
2023-05-14T19:16:11.602Z,95271.88
2023-05-14T19:19:15.158Z,95253.22
2023-05-14T19:22:19.697Z,95268.16
2023-05-14T19:25:22.832Z,95274.06
2023-05-14T19:28:25.939Z,95281.56
2023-05-14T19:31:30.485Z,95266.63
2023-05-14T19:34:33.640Z,95295.88
2023-05-14T19:37:36.693Z,95293.84
2023-05-14T19:40:39.701Z,95287.28
2023-05-14T19:43:42.830Z,95279.25
2023-05-14T19:46:47.380Z,95285.41
2023-05-14T19:49:50.520Z,95259.59
2023-05-14T19:52:53.560Z,95259.88
2023-05-14T19:55:56.716Z,95271.78
2023-05-14T19:58:59.722Z,95243.13
2023-05-14T20:02:04.820Z,95269.56
2023-05-14T20:05:10.640Z,95265.47
2023-05-14T20:08:13.679Z,95248.13
2023-05-14T20:11:18.136Z,95264.16
2023-05-14T20:14:21.161Z,95239.91
2023-05-14T20:17:25.581Z,95252.78
2023-05-14T20:20:32.683Z,95249.66
2023-05-14T20:23:36.443Z,95263.16
2023-05-14T20:26:39.479Z,95264.38
2023-05-14T20:29:42.474Z,95250.97
2023-05-14T20:32:46.959Z,95268.91
2023-05-14T20:35:50.074Z,95262.19
2023-05-14T20:38:53.557Z,95261.97
2023-05-14T20:41:56.540Z,95262.59
2023-05-14T20:44:59.540Z,95282.97
2023-05-14T20:48:08.090Z,95264.44
2023-05-14T20:51:11.208Z,95251.50
2023-05-14T20:54:14.235Z,95242.09
2023-05-14T20:57:17.742Z,95237.53
2023-05-14T21:00:21.259Z,95242.69
2023-05-14T21:03:25.832Z,95210.25
2023-05-14T21:06:28.985Z,95233.41
2023-05-14T21:09:31.981Z,95238.06
2023-05-14T21:12:35.059Z,95252.81
2023-05-14T21:15:38.191Z,95265.19
2023-05-14T21:18:42.572Z,95247.41
2023-05-14T21:21:45.778Z,95255.50
2023-05-14T21:24:48.783Z,95242.47
2023-05-14T21:27:51.808Z,95241.97
2023-05-14T21:30:54.803Z,95219.13
2023-05-14T21:33:59.190Z,95252.00
2023-05-14T21:37:02.217Z,95256.84
2023-05-14T21:40:05.511Z,95250.25
2023-05-14T21:43:08.442Z,95238.97
2023-05-14T21:46:11.520Z,95227.13
2023-05-14T21:49:15.911Z,95229.00
2023-05-14T21:52:18.961Z,95237.00
2023-05-14T21:55:22.366Z,95231.66
2023-05-14T21:58:25.758Z,95231.78
2023-05-14T22:01:28.876Z,95224.41
2023-05-14T22:04:33.441Z,95208.81
2023-05-14T22:07:36.498Z,95214.94
2023-05-14T22:10:39.455Z,95224.03
2023-05-14T22:13:42.500Z,95217.25
2023-05-14T22:16:45.639Z,95215.53
2023-05-14T22:19:50.164Z,95212.38
2023-05-14T22:22:53.252Z,95210.03
2023-05-14T22:25:56.300Z,95208.59
2023-05-14T22:28:59.302Z,95207.50
2023-05-14T22:32:02.279Z,95207.28
2023-05-14T22:35:07.060Z,95197.72
2023-05-14T22:38:10.108Z,95214.78
2023-05-14T22:41:13.603Z,95190.22
2023-05-14T22:44:16.564Z,95189.22
2023-05-14T22:47:19.655Z,95181.72
2023-05-14T22:50:24.098Z,95174.34
2023-05-14T22:53:27.093Z,95182.63
2023-05-14T22:56:30.175Z,95171.19
2023-05-14T22:59:33.183Z,95162.84
2023-05-14T23:02:36.407Z,95158.59
2023-05-14T23:05:40.937Z,95160.16
2023-05-14T23:08:43.967Z,95159.19
2023-05-14T23:11:47.394Z,95161.56
2023-05-14T23:14:50.407Z,95153.06
2023-05-14T23:17:53.590Z,95117.28
2023-05-14T23:20:58.257Z,95151.19
2023-05-14T23:24:01.277Z,95171.72
2023-05-14T23:27:04.529Z,95159.28
2023-05-14T23:30:08.661Z,95142.19
2023-05-14T23:33:11.955Z,95124.63
2023-05-14T23:36:16.696Z,95123.38
2023-05-14T23:39:19.745Z,95125.84
2023-05-14T23:42:22.751Z,95107.50
2023-05-14T23:45:26.115Z,95096.06
2023-05-14T23:48:29.560Z,95083.53
2023-05-14T23:51:34.010Z,95068.97
2023-05-14T23:54:37.070Z,95061.16
2023-05-14T23:57:41.018Z,95058.59
